sensor_id;sensor_type;location;lat;lon;timestamp;temperature;humidity
46676;DHT22;32412;51.478;5.694;2023-08-08T00:00:26;13.30;99.90
46676;DHT22;32412;51.478;5.694;2023-08-08T00:02:52;13.30;99.90
46676;DHT22;32412;51.478;5.694;2023-08-08T00:05:18;13.40;99.90
46676;DHT22;32412;51.478;5.694;2023-08-08T00:07:43;13.40;99.90
46676;DHT22;32412;51.478;5.694;2023-08-08T00:10:09;13.40;99.90
46676;DHT22;32412;51.478;5.694;2023-08-08T00:12:35;13.50;99.90
46676;DHT22;32412;51.478;5.694;2023-08-08T00:15:01;13.50;99.90
46676;DHT22;32412;51.478;5.694;2023-08-08T00:17:26;13.60;99.90
46676;DHT22;32412;51.478;5.694;2023-08-08T00:19:52;13.60;99.90
46676;DHT22;32412;51.478;5.694;2023-08-08T00:22:18;13.60;99.90
46676;DHT22;32412;51.478;5.694;2023-08-08T00:24:43;13.60;99.90
46676;DHT22;32412;51.478;5.694;2023-08-08T00:27:09;13.60;99.90
46676;DHT22;32412;51.478;5.694;2023-08-08T00:29:35;13.70;99.90
46676;DHT22;32412;51.478;5.694;2023-08-08T00:32:01;13.70;99.90
46676;DHT22;32412;51.478;5.694;2023-08-08T00:34:26;13.80;99.90
46676;DHT22;32412;51.478;5.694;2023-08-08T00:36:52;13.90;99.90
46676;DHT22;32412;51.478;5.694;2023-08-08T00:39:18;13.90;99.90
46676;DHT22;32412;51.478;5.694;2023-08-08T00:41:44;13.90;99.90
46676;DHT22;32412;51.478;5.694;2023-08-08T00:44:10;13.90;99.90
46676;DHT22;32412;51.478;5.694;2023-08-08T00:46:36;14.00;99.90
46676;DHT22;32412;51.478;5.694;2023-08-08T00:49:01;14.00;99.90
46676;DHT22;32412;51.478;5.694;2023-08-08T00:51:27;14.00;99.90
46676;DHT22;32412;51.478;5.694;2023-08-08T00:53:54;14.10;99.90
46676;DHT22;32412;51.478;5.694;2023-08-08T00:56:20;14.10;99.90
46676;DHT22;32412;51.478;5.694;2023-08-08T00:58:46;14.20;99.90
46676;DHT22;32412;51.478;5.694;2023-08-08T01:01:12;14.10;99.90
46676;DHT22;32412;51.478;5.694;2023-08-08T01:03:38;14.00;99.90
46676;DHT22;32412;51.478;5.694;2023-08-08T01:06:10;14.10;99.90
46676;DHT22;32412;51.478;5.694;2023-08-08T01:08:39;14.10;99.90
46676;DHT22;32412;51.478;5.694;2023-08-08T01:11:08;14.10;99.90
46676;DHT22;32412;51.478;5.694;2023-08-08T01:13:34;14.20;99.90
46676;DHT22;32412;51.478;5.694;2023-08-08T01:16:01;14.10;99.90
46676;DHT22;32412;51.478;5.694;2023-08-08T01:18:29;14.20;99.90
46676;DHT22;32412;51.478;5.694;2023-08-08T01:20:55;14.20;99.90
46676;DHT22;32412;51.478;5.694;2023-08-08T01:23:47;14.20;99.90
46676;DHT22;32412;51.478;5.694;2023-08-08T01:26:17;14.30;99.90
46676;DHT22;32412;51.478;5.694;2023-08-08T01:28:44;14.30;99.90
46676;DHT22;32412;51.478;5.694;2023-08-08T01:31:10;14.30;99.90
46676;DHT22;32412;51.478;5.694;2023-08-08T01:33:35;14.30;99.90
46676;DHT22;32412;51.478;5.694;2023-08-08T01:36:22;14.40;99.90
46676;DHT22;32412;51.478;5.694;2023-08-08T01:38:51;14.40;99.90
46676;DHT22;32412;51.478;5.694;2023-08-08T01:41:18;14.40;99.90
46676;DHT22;32412;51.478;5.694;2023-08-08T01:43:45;14.40;99.90
46676;DHT22;32412;51.478;5.694;2023-08-08T01:46:11;14.40;99.90
46676;DHT22;32412;51.478;5.694;2023-08-08T01:48:37;14.40;99.90
46676;DHT22;32412;51.478;5.694;2023-08-08T01:51:03;14.50;99.90
46676;DHT22;32412;51.478;5.694;2023-08-08T01:53:29;14.40;99.90
46676;DHT22;32412;51.478;5.694;2023-08-08T01:55:54;14.40;99.90
46676;DHT22;32412;51.478;5.694;2023-08-08T01:58:20;14.40;99.90
46676;DHT22;32412;51.478;5.694;2023-08-08T02:00:46;14.40;99.90
46676;DHT22;32412;51.478;5.694;2023-08-08T02:03:12;14.40;99.90
46676;DHT22;32412;51.478;5.694;2023-08-08T02:05:38;14.40;99.90
46676;DHT22;32412;51.478;5.694;2023-08-08T02:08:04;14.40;99.90
46676;DHT22;32412;51.478;5.694;2023-08-08T02:10:30;14.40;99.90
46676;DHT22;32412;51.478;5.694;2023-08-08T02:12:55;14.40;99.90
46676;DHT22;32412;51.478;5.694;2023-08-08T02:15:21;14.40;99.90
46676;DHT22;32412;51.478;5.694;2023-08-08T02:17:47;14.40;99.90
46676;DHT22;32412;51.478;5.694;2023-08-08T02:20:13;14.30;99.90
46676;DHT22;32412;51.478;5.694;2023-08-08T02:22:38;14.20;99.90
46676;DHT22;32412;51.478;5.694;2023-08-08T02:25:04;14.20;99.90
46676;DHT22;32412;51.478;5.694;2023-08-08T02:27:30;14.10;99.90
46676;DHT22;32412;51.478;5.694;2023-08-08T02:29:56;14.00;99.90
46676;DHT22;32412;51.478;5.694;2023-08-08T02:32:23;14.00;99.90
46676;DHT22;32412;51.478;5.694;2023-08-08T02:34:49;13.90;99.90
46676;DHT22;32412;51.478;5.694;2023-08-08T02:37:14;13.80;99.90
46676;DHT22;32412;51.478;5.694;2023-08-08T02:39:42;13.70;99.90
46676;DHT22;32412;51.478;5.694;2023-08-08T02:42:07;13.70;99.90
46676;DHT22;32412;51.478;5.694;2023-08-08T02:44:33;13.70;99.90
46676;DHT22;32412;51.478;5.694;2023-08-08T02:46:59;13.70;99.90
46676;DHT22;32412;51.478;5.694;2023-08-08T02:49:24;13.70;99.90
46676;DHT22;32412;51.478;5.694;2023-08-08T02:51:50;13.70;99.90
46676;DHT22;32412;51.478;5.694;2023-08-08T02:54:16;13.70;99.90
46676;DHT22;32412;51.478;5.694;2023-08-08T02:56:41;13.70;99.90
46676;DHT22;32412;51.478;5.694;2023-08-08T02:59:07;13.70;99.90
46676;DHT22;32412;51.478;5.694;2023-08-08T03:01:32;13.80;99.90
46676;DHT22;32412;51.478;5.694;2023-08-08T03:03:58;13.80;99.90
46676;DHT22;32412;51.478;5.694;2023-08-08T03:06:25;13.80;99.90
46676;DHT22;32412;51.478;5.694;2023-08-08T03:08:50;13.80;99.90
46676;DHT22;32412;51.478;5.694;2023-08-08T03:11:19;13.80;99.90
46676;DHT22;32412;51.478;5.694;2023-08-08T03:13:45;13.80;99.90
46676;DHT22;32412;51.478;5.694;2023-08-08T03:16:10;13.80;99.90
46676;DHT22;32412;51.478;5.694;2023-08-08T03:18:36;13.80;99.90
46676;DHT22;32412;51.478;5.694;2023-08-08T03:21:02;13.80;99.90
46676;DHT22;32412;51.478;5.694;2023-08-08T03:23:28;13.80;99.90
46676;DHT22;32412;51.478;5.694;2023-08-08T03:25:53;13.80;99.90
46676;DHT22;32412;51.478;5.694;2023-08-08T03:28:19;13.80;99.90
46676;DHT22;32412;51.478;5.694;2023-08-08T03:30:45;13.80;99.90
46676;DHT22;32412;51.478;5.694;2023-08-08T03:33:10;13.80;99.90
46676;DHT22;32412;51.478;5.694;2023-08-08T03:35:36;13.80;99.90
46676;DHT22;32412;51.478;5.694;2023-08-08T03:38:01;13.80;99.90
46676;DHT22;32412;51.478;5.694;2023-08-08T03:40:28;13.80;99.90
46676;DHT22;32412;51.478;5.694;2023-08-08T03:42:53;13.80;99.90
46676;DHT22;32412;51.478;5.694;2023-08-08T03:45:19;13.80;99.90
46676;DHT22;32412;51.478;5.694;2023-08-08T03:47:45;13.80;99.90
46676;DHT22;32412;51.478;5.694;2023-08-08T03:50:11;13.90;99.90
46676;DHT22;32412;51.478;5.694;2023-08-08T03:52:37;13.90;99.90
46676;DHT22;32412;51.478;5.694;2023-08-08T03:55:04;13.90;99.90
46676;DHT22;32412;51.478;5.694;2023-08-08T03:57:30;13.90;99.90
46676;DHT22;32412;51.478;5.694;2023-08-08T03:59:56;13.80;99.90
46676;DHT22;32412;51.478;5.694;2023-08-08T04:02:22;13.80;99.90
46676;DHT22;32412;51.478;5.694;2023-08-08T04:04:47;13.90;99.90
46676;DHT22;32412;51.478;5.694;2023-08-08T04:07:13;13.90;99.90
46676;DHT22;32412;51.478;5.694;2023-08-08T04:09:39;13.90;99.90
46676;DHT22;32412;51.478;5.694;2023-08-08T04:12:05;13.80;99.90
46676;DHT22;32412;51.478;5.694;2023-08-08T04:14:30;13.80;99.90
46676;DHT22;32412;51.478;5.694;2023-08-08T04:16:56;13.70;99.90
46676;DHT22;32412;51.478;5.694;2023-08-08T04:19:21;13.70;99.90
46676;DHT22;32412;51.478;5.694;2023-08-08T04:21:48;13.60;99.90
46676;DHT22;32412;51.478;5.694;2023-08-08T04:24:14;13.50;99.90
46676;DHT22;32412;51.478;5.694;2023-08-08T04:26:40;13.50;99.90
46676;DHT22;32412;51.478;5.694;2023-08-08T04:29:06;13.40;99.90
46676;DHT22;32412;51.478;5.694;2023-08-08T04:31:32;13.40;99.90
46676;DHT22;32412;51.478;5.694;2023-08-08T04:33:57;13.40;99.90
46676;DHT22;32412;51.478;5.694;2023-08-08T04:36:30;13.40;99.90
46676;DHT22;32412;51.478;5.694;2023-08-08T04:38:55;13.30;99.90
46676;DHT22;32412;51.478;5.694;2023-08-08T04:41:21;13.30;99.90
46676;DHT22;32412;51.478;5.694;2023-08-08T04:43:47;13.30;99.90
46676;DHT22;32412;51.478;5.694;2023-08-08T04:46:13;13.30;99.90
46676;DHT22;32412;51.478;5.694;2023-08-08T04:48:39;13.30;99.90
46676;DHT22;32412;51.478;5.694;2023-08-08T04:51:05;13.30;99.90
46676;DHT22;32412;51.478;5.694;2023-08-08T04:53:31;13.30;99.90
46676;DHT22;32412;51.478;5.694;2023-08-08T04:55:57;13.30;99.90
46676;DHT22;32412;51.478;5.694;2023-08-08T04:58:23;13.30;99.90
46676;DHT22;32412;51.478;5.694;2023-08-08T05:00:48;13.30;99.90
46676;DHT22;32412;51.478;5.694;2023-08-08T05:03:16;13.30;99.90
46676;DHT22;32412;51.478;5.694;2023-08-08T05:05:42;13.30;99.90
46676;DHT22;32412;51.478;5.694;2023-08-08T05:08:10;13.30;99.90
46676;DHT22;32412;51.478;5.694;2023-08-08T05:10:36;13.30;99.90
46676;DHT22;32412;51.478;5.694;2023-08-08T05:13:02;13.40;99.90
46676;DHT22;32412;51.478;5.694;2023-08-08T05:15:27;13.40;99.90
46676;DHT22;32412;51.478;5.694;2023-08-08T05:17:53;13.40;99.90
46676;DHT22;32412;51.478;5.694;2023-08-08T05:20:20;13.40;99.90
46676;DHT22;32412;51.478;5.694;2023-08-08T05:22:46;13.40;99.90
46676;DHT22;32412;51.478;5.694;2023-08-08T05:25:12;13.40;99.90
46676;DHT22;32412;51.478;5.694;2023-08-08T05:27:38;13.50;99.90
46676;DHT22;32412;51.478;5.694;2023-08-08T05:30:04;13.50;99.90
46676;DHT22;32412;51.478;5.694;2023-08-08T05:32:30;13.50;99.90
46676;DHT22;32412;51.478;5.694;2023-08-08T05:34:57;13.60;99.90
46676;DHT22;32412;51.478;5.694;2023-08-08T05:37:23;13.60;99.90
46676;DHT22;32412;51.478;5.694;2023-08-08T05:39:50;13.70;99.90
46676;DHT22;32412;51.478;5.694;2023-08-08T05:42:17;13.80;99.90
46676;DHT22;32412;51.478;5.694;2023-08-08T05:44:43;13.80;99.90
46676;DHT22;32412;51.478;5.694;2023-08-08T05:47:09;13.90;99.90
46676;DHT22;32412;51.478;5.694;2023-08-08T05:49:35;13.90;99.90
46676;DHT22;32412;51.478;5.694;2023-08-08T05:52:01;14.00;99.90
46676;DHT22;32412;51.478;5.694;2023-08-08T05:54:27;14.10;99.90
46676;DHT22;32412;51.478;5.694;2023-08-08T05:56:53;14.10;99.90
46676;DHT22;32412;51.478;5.694;2023-08-08T05:59:19;14.20;99.90
46676;DHT22;32412;51.478;5.694;2023-08-08T06:01:45;14.30;99.90
46676;DHT22;32412;51.478;5.694;2023-08-08T06:04:11;14.30;99.90
46676;DHT22;32412;51.478;5.694;2023-08-08T06:06:37;14.50;99.90
46676;DHT22;32412;51.478;5.694;2023-08-08T06:09:04;14.60;99.90
46676;DHT22;32412;51.478;5.694;2023-08-08T06:11:30;14.70;99.90
46676;DHT22;32412;51.478;5.694;2023-08-08T06:13:56;14.70;99.90
46676;DHT22;32412;51.478;5.694;2023-08-08T06:16:22;14.80;99.90
46676;DHT22;32412;51.478;5.694;2023-08-08T06:18:48;14.80;99.90
46676;DHT22;32412;51.478;5.694;2023-08-08T06:21:13;14.80;99.90
46676;DHT22;32412;51.478;5.694;2023-08-08T06:23:40;14.90;99.90
46676;DHT22;32412;51.478;5.694;2023-08-08T06:26:06;14.90;99.90
46676;DHT22;32412;51.478;5.694;2023-08-08T06:28:32;15.00;99.90
46676;DHT22;32412;51.478;5.694;2023-08-08T06:31:01;15.00;99.90
46676;DHT22;32412;51.478;5.694;2023-08-08T06:33:27;15.10;99.90
46676;DHT22;32412;51.478;5.694;2023-08-08T06:35:55;15.20;99.90
46676;DHT22;32412;51.478;5.694;2023-08-08T06:38:21;15.30;99.90
46676;DHT22;32412;51.478;5.694;2023-08-08T06:40:47;15.20;99.90
46676;DHT22;32412;51.478;5.694;2023-08-08T06:43:12;15.40;99.90
46676;DHT22;32412;51.478;5.694;2023-08-08T06:45:39;15.40;99.90
46676;DHT22;32412;51.478;5.694;2023-08-08T06:48:05;15.40;99.90
46676;DHT22;32412;51.478;5.694;2023-08-08T06:50:30;15.60;99.90
46676;DHT22;32412;51.478;5.694;2023-08-08T06:52:56;15.50;99.90
46676;DHT22;32412;51.478;5.694;2023-08-08T06:55:23;15.50;99.90
46676;DHT22;32412;51.478;5.694;2023-08-08T06:57:49;15.70;99.90
46676;DHT22;32412;51.478;5.694;2023-08-08T07:00:15;15.90;99.90
46676;DHT22;32412;51.478;5.694;2023-08-08T07:02:41;16.10;99.90
46676;DHT22;32412;51.478;5.694;2023-08-08T07:05:07;16.20;99.90
46676;DHT22;32412;51.478;5.694;2023-08-08T07:07:35;16.40;99.90
46676;DHT22;32412;51.478;5.694;2023-08-08T07:10:01;16.40;99.90
46676;DHT22;32412;51.478;5.694;2023-08-08T07:12:26;16.60;99.90
46676;DHT22;32412;51.478;5.694;2023-08-08T07:14:55;16.80;99.90
46676;DHT22;32412;51.478;5.694;2023-08-08T07:17:21;16.80;99.90
46676;DHT22;32412;51.478;5.694;2023-08-08T07:19:47;16.70;99.90
46676;DHT22;32412;51.478;5.694;2023-08-08T07:22:12;16.60;99.90
46676;DHT22;32412;51.478;5.694;2023-08-08T07:24:38;16.80;99.90
46676;DHT22;32412;51.478;5.694;2023-08-08T07:27:04;16.80;99.90
46676;DHT22;32412;51.478;5.694;2023-08-08T07:29:30;16.80;99.90
46676;DHT22;32412;51.478;5.694;2023-08-08T07:31:57;16.80;99.90
46676;DHT22;32412;51.478;5.694;2023-08-08T07:34:23;16.90;99.90
46676;DHT22;32412;51.478;5.694;2023-08-08T07:36:50;17.20;99.90
46676;DHT22;32412;51.478;5.694;2023-08-08T07:39:16;17.20;99.90
46676;DHT22;32412;51.478;5.694;2023-08-08T07:41:42;17.30;99.90
46676;DHT22;32412;51.478;5.694;2023-08-08T07:44:07;17.20;99.90
46676;DHT22;32412;51.478;5.694;2023-08-08T07:46:33;17.30;99.90
46676;DHT22;32412;51.478;5.694;2023-08-08T07:48:59;17.40;99.90
46676;DHT22;32412;51.478;5.694;2023-08-08T07:51:29;17.50;99.90
46676;DHT22;32412;51.478;5.694;2023-08-08T07:53:54;17.50;99.90
46676;DHT22;32412;51.478;5.694;2023-08-08T07:56:20;17.60;99.90
46676;DHT22;32412;51.478;5.694;2023-08-08T07:58:45;17.90;99.90
46676;DHT22;32412;51.478;5.694;2023-08-08T08:01:11;18.30;99.90
46676;DHT22;32412;51.478;5.694;2023-08-08T08:03:39;18.60;99.90
46676;DHT22;32412;51.478;5.694;2023-08-08T08:06:05;18.80;99.90
46676;DHT22;32412;51.478;5.694;2023-08-08T08:08:31;18.80;99.90
46676;DHT22;32412;51.478;5.694;2023-08-08T08:10:56;18.80;99.90
46676;DHT22;32412;51.478;5.694;2023-08-08T08:13:22;18.90;99.90
46676;DHT22;32412;51.478;5.694;2023-08-08T08:15:48;18.80;99.90
46676;DHT22;32412;51.478;5.694;2023-08-08T08:18:13;18.70;99.90
46676;DHT22;32412;51.478;5.694;2023-08-08T08:20:45;18.80;99.90
46676;DHT22;32412;51.478;5.694;2023-08-08T08:23:10;18.90;99.90
46676;DHT22;32412;51.478;5.694;2023-08-08T08:25:36;18.80;99.90
46676;DHT22;32412;51.478;5.694;2023-08-08T08:28:02;18.90;99.90
46676;DHT22;32412;51.478;5.694;2023-08-08T08:30:27;18.60;99.90
46676;DHT22;32412;51.478;5.694;2023-08-08T08:32:53;18.40;99.90
46676;DHT22;32412;51.478;5.694;2023-08-08T08:35:19;18.20;99.90
46676;DHT22;32412;51.478;5.694;2023-08-08T08:37:46;18.30;99.90
46676;DHT22;32412;51.478;5.694;2023-08-08T08:40:11;18.30;99.90
46676;DHT22;32412;51.478;5.694;2023-08-08T08:42:38;18.30;99.90
46676;DHT22;32412;51.478;5.694;2023-08-08T08:45:04;18.50;99.90
46676;DHT22;32412;51.478;5.694;2023-08-08T08:47:31;18.90;99.90
46676;DHT22;32412;51.478;5.694;2023-08-08T08:49:58;19.20;99.90
46676;DHT22;32412;51.478;5.694;2023-08-08T08:52:26;19.60;99.90
46676;DHT22;32412;51.478;5.694;2023-08-08T08:54:53;19.60;99.90
46676;DHT22;32412;51.478;5.694;2023-08-08T08:57:21;19.30;99.90
46676;DHT22;32412;51.478;5.694;2023-08-08T08:59:47;19.10;99.90
46676;DHT22;32412;51.478;5.694;2023-08-08T09:02:13;18.70;99.90
46676;DHT22;32412;51.478;5.694;2023-08-08T09:04:39;18.50;99.90
46676;DHT22;32412;51.478;5.694;2023-08-08T09:07:07;18.50;99.90
46676;DHT22;32412;51.478;5.694;2023-08-08T09:09:33;18.50;99.90
46676;DHT22;32412;51.478;5.694;2023-08-08T09:12:01;18.60;99.90
46676;DHT22;32412;51.478;5.694;2023-08-08T09:14:26;18.80;99.90
46676;DHT22;32412;51.478;5.694;2023-08-08T09:16:53;19.00;99.90
46676;DHT22;32412;51.478;5.694;2023-08-08T09:19:19;19.20;99.90
46676;DHT22;32412;51.478;5.694;2023-08-08T09:21:46;19.30;99.90
46676;DHT22;32412;51.478;5.694;2023-08-08T09:24:12;19.30;99.90
46676;DHT22;32412;51.478;5.694;2023-08-08T09:26:40;19.10;99.90
46676;DHT22;32412;51.478;5.694;2023-08-08T09:29:06;18.80;99.90
46676;DHT22;32412;51.478;5.694;2023-08-08T09:31:34;18.50;99.90
46676;DHT22;32412;51.478;5.694;2023-08-08T09:34:02;18.30;99.90
46676;DHT22;32412;51.478;5.694;2023-08-08T09:36:27;18.30;99.90
46676;DHT22;32412;51.478;5.694;2023-08-08T09:38:54;18.50;99.90
46676;DHT22;32412;51.478;5.694;2023-08-08T09:41:23;18.80;99.90
46676;DHT22;32412;51.478;5.694;2023-08-08T09:43:50;18.80;99.90
46676;DHT22;32412;51.478;5.694;2023-08-08T09:46:17;18.70;99.90
46676;DHT22;32412;51.478;5.694;2023-08-08T09:48:43;18.70;99.90
46676;DHT22;32412;51.478;5.694;2023-08-08T09:51:09;18.60;99.90
46676;DHT22;32412;51.478;5.694;2023-08-08T09:53:35;18.70;99.90
46676;DHT22;32412;51.478;5.694;2023-08-08T09:56:05;18.70;99.90
46676;DHT22;32412;51.478;5.694;2023-08-08T09:58:32;18.60;99.90
46676;DHT22;32412;51.478;5.694;2023-08-08T10:00:57;18.80;99.90
46676;DHT22;32412;51.478;5.694;2023-08-08T10:03:24;19.20;99.90
46676;DHT22;32412;51.478;5.694;2023-08-08T10:05:50;19.70;99.90
46676;DHT22;32412;51.478;5.694;2023-08-08T10:08:18;20.10;99.90
46676;DHT22;32412;51.478;5.694;2023-08-08T10:10:45;19.90;99.90
46676;DHT22;32412;51.478;5.694;2023-08-08T10:13:22;19.80;99.90
46676;DHT22;32412;51.478;5.694;2023-08-08T10:15:49;20.20;99.90
46676;DHT22;32412;51.478;5.694;2023-08-08T10:18:15;20.90;99.90
46676;DHT22;32412;51.478;5.694;2023-08-08T10:20:47;20.90;99.90
46676;DHT22;32412;51.478;5.694;2023-08-08T10:23:15;20.80;99.90
46676;DHT22;32412;51.478;5.694;2023-08-08T10:25:45;20.90;99.90
46676;DHT22;32412;51.478;5.694;2023-08-08T10:28:13;21.00;99.90
46676;DHT22;32412;51.478;5.694;2023-08-08T10:30:56;21.60;99.90
46676;DHT22;32412;51.478;5.694;2023-08-08T10:33:27;22.50;99.90
46676;DHT22;32412;51.478;5.694;2023-08-08T10:36:03;22.10;99.90
46676;DHT22;32412;51.478;5.694;2023-08-08T10:38:41;21.30;99.90
46676;DHT22;32412;51.478;5.694;2023-08-08T10:41:10;21.40;99.90
46676;DHT22;32412;51.478;5.694;2023-08-08T10:43:36;21.80;99.90
46676;DHT22;32412;51.478;5.694;2023-08-08T10:46:03;22.00;99.90
46676;DHT22;32412;51.478;5.694;2023-08-08T10:48:29;22.70;99.90
46676;DHT22;32412;51.478;5.694;2023-08-08T10:50:59;22.90;99.90
46676;DHT22;32412;51.478;5.694;2023-08-08T10:53:28;22.50;99.90
46676;DHT22;32412;51.478;5.694;2023-08-08T10:55:59;22.40;99.90
46676;DHT22;32412;51.478;5.694;2023-08-08T10:58:38;22.50;99.90
46676;DHT22;32412;51.478;5.694;2023-08-08T11:01:05;22.40;99.90
46676;DHT22;32412;51.478;5.694;2023-08-08T11:03:37;22.10;99.90
46676;DHT22;32412;51.478;5.694;2023-08-08T11:06:06;21.20;99.90
46676;DHT22;32412;51.478;5.694;2023-08-08T11:08:32;20.40;99.90
46676;DHT22;32412;51.478;5.694;2023-08-08T11:10:59;19.70;99.90
46676;DHT22;32412;51.478;5.694;2023-08-08T11:13:25;19.40;99.90
46676;DHT22;32412;51.478;5.694;2023-08-08T11:15:51;18.90;99.90
46676;DHT22;32412;51.478;5.694;2023-08-08T11:18:17;18.60;99.90
46676;DHT22;32412;51.478;5.694;2023-08-08T11:20:43;18.20;99.90
46676;DHT22;32412;51.478;5.694;2023-08-08T11:23:10;18.10;99.90
46676;DHT22;32412;51.478;5.694;2023-08-08T11:25:40;18.00;99.90
46676;DHT22;32412;51.478;5.694;2023-08-08T11:28:08;18.30;99.90
46676;DHT22;32412;51.478;5.694;2023-08-08T11:30:35;19.30;99.90
46676;DHT22;32412;51.478;5.694;2023-08-08T11:33:02;20.80;99.90
46676;DHT22;32412;51.478;5.694;2023-08-08T11:35:29;21.90;99.90
46676;DHT22;32412;51.478;5.694;2023-08-08T11:37:57;21.90;99.90
46676;DHT22;32412;51.478;5.694;2023-08-08T11:40:27;21.80;99.90
46676;DHT22;32412;51.478;5.694;2023-08-08T11:42:54;21.60;99.90
46676;DHT22;32412;51.478;5.694;2023-08-08T11:45:20;21.80;99.90
46676;DHT22;32412;51.478;5.694;2023-08-08T11:47:49;22.20;99.90
46676;DHT22;32412;51.478;5.694;2023-08-08T11:50:15;21.60;99.90
46676;DHT22;32412;51.478;5.694;2023-08-08T11:52:44;21.20;99.90
46676;DHT22;32412;51.478;5.694;2023-08-08T11:55:10;22.20;99.90
46676;DHT22;32412;51.478;5.694;2023-08-08T11:57:38;22.90;99.90
46676;DHT22;32412;51.478;5.694;2023-08-08T12:00:13;23.70;99.90
46676;DHT22;32412;51.478;5.694;2023-08-08T12:02:39;24.40;99.90
46676;DHT22;32412;51.478;5.694;2023-08-08T12:05:14;25.00;99.90
46676;DHT22;32412;51.478;5.694;2023-08-08T12:07:43;25.00;99.90
46676;DHT22;32412;51.478;5.694;2023-08-08T12:10:17;25.40;99.90
46676;DHT22;32412;51.478;5.694;2023-08-08T12:12:47;26.10;99.70
46676;DHT22;32412;51.478;5.694;2023-08-08T12:15:17;26.10;99.00
46676;DHT22;32412;51.478;5.694;2023-08-08T12:17:43;25.70;99.70
46676;DHT22;32412;51.478;5.694;2023-08-08T12:20:09;24.60;99.90
46676;DHT22;32412;51.478;5.694;2023-08-08T12:22:37;23.30;99.90
46676;DHT22;32412;51.478;5.694;2023-08-08T12:25:04;23.70;99.90
46676;DHT22;32412;51.478;5.694;2023-08-08T12:27:30;24.30;99.90
46676;DHT22;32412;51.478;5.694;2023-08-08T12:29:56;25.00;99.90
46676;DHT22;32412;51.478;5.694;2023-08-08T12:32:26;24.00;99.90
46676;DHT22;32412;51.478;5.694;2023-08-08T12:34:52;22.90;99.90
46676;DHT22;32412;51.478;5.694;2023-08-08T12:37:17;21.80;99.90
46676;DHT22;32412;51.478;5.694;2023-08-08T12:39:43;21.00;99.90
46676;DHT22;32412;51.478;5.694;2023-08-08T12:42:09;20.60;99.90
46676;DHT22;32412;51.478;5.694;2023-08-08T12:44:35;20.60;99.90
46676;DHT22;32412;51.478;5.694;2023-08-08T12:47:01;22.20;99.90
46676;DHT22;32412;51.478;5.694;2023-08-08T12:49:26;22.90;99.90
46676;DHT22;32412;51.478;5.694;2023-08-08T12:51:52;22.70;99.90
46676;DHT22;32412;51.478;5.694;2023-08-08T12:54:21;23.30;99.90
46676;DHT22;32412;51.478;5.694;2023-08-08T12:56:46;24.40;98.20
46676;DHT22;32412;51.478;5.694;2023-08-08T12:59:12;24.70;96.90
46676;DHT22;32412;51.478;5.694;2023-08-08T13:01:38;25.30;96.50
46676;DHT22;32412;51.478;5.694;2023-08-08T13:04:03;25.10;95.80
46676;DHT22;32412;51.478;5.694;2023-08-08T13:06:30;24.00;96.40
46676;DHT22;32412;51.478;5.694;2023-08-08T13:08:56;23.30;98.20
46676;DHT22;32412;51.478;5.694;2023-08-08T13:11:22;24.10;98.60
46676;DHT22;32412;51.478;5.694;2023-08-08T13:13:47;24.10;98.40
46676;DHT22;32412;51.478;5.694;2023-08-08T13:16:13;24.50;98.00
46676;DHT22;32412;51.478;5.694;2023-08-08T13:18:39;24.00;98.50
46676;DHT22;32412;51.478;5.694;2023-08-08T13:21:05;23.10;98.10
46676;DHT22;32412;51.478;5.694;2023-08-08T13:23:31;22.30;99.90
46676;DHT22;32412;51.478;5.694;2023-08-08T13:25:57;22.20;99.90
46676;DHT22;32412;51.478;5.694;2023-08-08T13:28:23;21.80;99.90
46676;DHT22;32412;51.478;5.694;2023-08-08T13:30:49;21.80;99.90
46676;DHT22;32412;51.478;5.694;2023-08-08T13:33:14;21.30;99.70
46676;DHT22;32412;51.478;5.694;2023-08-08T13:35:40;21.00;99.90
46676;DHT22;32412;51.478;5.694;2023-08-08T13:38:06;20.80;99.90
46676;DHT22;32412;51.478;5.694;2023-08-08T13:40:33;20.50;99.90
46676;DHT22;32412;51.478;5.694;2023-08-08T13:42:58;20.20;99.90
46676;DHT22;32412;51.478;5.694;2023-08-08T13:45:24;20.30;99.90
46676;DHT22;32412;51.478;5.694;2023-08-08T13:47:50;20.40;99.90
46676;DHT22;32412;51.478;5.694;2023-08-08T13:50:15;20.60;99.90
46676;DHT22;32412;51.478;5.694;2023-08-08T13:52:41;20.70;99.90
46676;DHT22;32412;51.478;5.694;2023-08-08T13:55:08;20.80;99.90
46676;DHT22;32412;51.478;5.694;2023-08-08T13:57:34;20.70;99.90
46676;DHT22;32412;51.478;5.694;2023-08-08T14:00:00;20.70;99.90
46676;DHT22;32412;51.478;5.694;2023-08-08T14:02:26;20.90;99.90
46676;DHT22;32412;51.478;5.694;2023-08-08T14:04:51;20.90;99.90
46676;DHT22;32412;51.478;5.694;2023-08-08T14:07:18;21.00;99.90
46676;DHT22;32412;51.478;5.694;2023-08-08T14:09:44;21.00;99.70
46676;DHT22;32412;51.478;5.694;2023-08-08T14:12:10;20.90;99.60
46676;DHT22;32412;51.478;5.694;2023-08-08T14:14:35;20.90;99.60
46676;DHT22;32412;51.478;5.694;2023-08-08T14:17:01;21.00;99.90
46676;DHT22;32412;51.478;5.694;2023-08-08T14:19:27;21.30;99.90
46676;DHT22;32412;51.478;5.694;2023-08-08T14:21:52;21.10;99.00
46676;DHT22;32412;51.478;5.694;2023-08-08T14:24:18;20.80;99.50
46676;DHT22;32412;51.478;5.694;2023-08-08T14:26:44;20.80;99.90
46676;DHT22;32412;51.478;5.694;2023-08-08T14:29:11;20.80;99.90
46676;DHT22;32412;51.478;5.694;2023-08-08T14:31:36;20.80;99.90
46676;DHT22;32412;51.478;5.694;2023-08-08T14:34:02;21.00;99.90
46676;DHT22;32412;51.478;5.694;2023-08-08T14:36:28;21.00;99.90
46676;DHT22;32412;51.478;5.694;2023-08-08T14:38:54;21.10;99.90
46676;DHT22;32412;51.478;5.694;2023-08-08T14:41:20;21.10;99.90
46676;DHT22;32412;51.478;5.694;2023-08-08T14:43:46;21.00;99.90
46676;DHT22;32412;51.478;5.694;2023-08-08T14:46:11;20.70;99.90
46676;DHT22;32412;51.478;5.694;2023-08-08T14:48:37;20.50;99.90
46676;DHT22;32412;51.478;5.694;2023-08-08T14:51:03;20.50;99.90
46676;DHT22;32412;51.478;5.694;2023-08-08T14:53:29;20.50;99.90
46676;DHT22;32412;51.478;5.694;2023-08-08T14:55:54;20.70;99.90
46676;DHT22;32412;51.478;5.694;2023-08-08T14:58:21;20.70;99.90
46676;DHT22;32412;51.478;5.694;2023-08-08T15:00:46;20.60;99.90
46676;DHT22;32412;51.478;5.694;2023-08-08T15:03:13;20.60;99.90
46676;DHT22;32412;51.478;5.694;2023-08-08T15:05:39;20.60;99.90
46676;DHT22;32412;51.478;5.694;2023-08-08T15:08:06;20.80;99.90
46676;DHT22;32412;51.478;5.694;2023-08-08T15:10:32;21.00;99.90
46676;DHT22;32412;51.478;5.694;2023-08-08T15:12:58;21.10;99.90
46676;DHT22;32412;51.478;5.694;2023-08-08T15:15:24;21.20;99.90
46676;DHT22;32412;51.478;5.694;2023-08-08T15:17:51;21.30;99.90
46676;DHT22;32412;51.478;5.694;2023-08-08T15:20:17;21.30;99.90
46676;DHT22;32412;51.478;5.694;2023-08-08T15:22:42;21.10;99.90
46676;DHT22;32412;51.478;5.694;2023-08-08T15:25:08;21.00;99.90